createdAt,value
2019-03-18T00:00:42.847Z,3.60
2019-03-18T00:03:09.582Z,2.57
2019-03-18T00:05:36.691Z,2.30
2019-03-18T00:08:03.539Z,2.77
2019-03-18T00:10:30.270Z,2.70
2019-03-18T00:12:57.458Z,2.73
2019-03-18T00:15:44.420Z,6.83
2019-03-18T00:18:11.934Z,4.87
2019-03-18T00:20:39.396Z,2.20
2019-03-18T00:23:06.586Z,3.20
2019-03-18T00:25:33.690Z,4.37
2019-03-18T00:28:00.888Z,2.53
2019-03-18T00:30:28.033Z,2.30
2019-03-18T00:32:55.507Z,3.27
2019-03-18T00:35:22.619Z,4.43
2019-03-18T00:37:49.749Z,3.40
2019-03-18T00:40:17.199Z,2.10
2019-03-18T00:42:44.313Z,3.03
2019-03-18T00:45:15.218Z,2.33
2019-03-18T00:47:40.223Z,2.97
2019-03-18T00:50:07.161Z,2.47
2019-03-18T00:52:33.855Z,2.77
2019-03-18T00:55:00.587Z,4.73
2019-03-18T00:57:27.581Z,2.57
2019-03-18T00:59:54.361Z,5.03
2019-03-18T01:02:21.079Z,2.90
2019-03-18T01:04:47.707Z,3.50
2019-03-18T01:07:14.508Z,4.97
2019-03-18T01:09:41.279Z,5.00
2019-03-18T01:12:08.166Z,4.50
2019-03-18T01:14:35.087Z,3.63
2019-03-18T01:17:01.807Z,3.93
2019-03-18T01:19:28.880Z,2.80
2019-03-18T01:21:55.647Z,4.23
2019-03-18T01:24:22.363Z,3.17
2019-03-18T01:26:49.090Z,3.80
2019-03-18T01:29:16.095Z,3.23
2019-03-18T01:31:42.740Z,3.43
2019-03-18T01:34:09.366Z,3.37
2019-03-18T01:36:36.425Z,3.20
2019-03-18T01:39:24.714Z,6.03
2019-03-18T01:41:51.922Z,3.90
2019-03-18T01:44:19.226Z,3.23
2019-03-18T01:46:46.310Z,3.40
2019-03-18T01:49:13.669Z,3.80
2019-03-18T01:51:40.811Z,3.20
2019-03-18T01:54:07.972Z,5.27
2019-03-18T01:56:35.108Z,3.13
2019-03-18T01:59:02.206Z,5.10
2019-03-18T02:01:29.327Z,6.23
2019-03-18T02:03:56.486Z,4.10
2019-03-18T02:06:23.583Z,4.57
2019-03-18T02:08:50.667Z,3.77
2019-03-18T02:11:17.833Z,4.40
2019-03-18T02:13:44.892Z,3.37
2019-03-18T02:16:11.975Z,3.57
2019-03-18T02:18:39.135Z,3.27
2019-03-18T02:21:06.415Z,4.33
2019-03-18T02:23:33.498Z,5.70
2019-03-18T02:26:01.035Z,3.33
2019-03-18T02:28:28.128Z,3.60
2019-03-18T02:31:07.943Z,3.37
2019-03-18T02:33:34.675Z,5.50
2019-03-18T02:36:01.403Z,4.53
2019-03-18T02:38:28.096Z,4.43
2019-03-18T02:40:54.990Z,4.63
2019-03-18T02:43:22.063Z,3.50
2019-03-18T02:45:48.860Z,4.53
2019-03-18T02:48:15.600Z,4.83
2019-03-18T02:50:42.483Z,3.40
2019-03-18T02:53:09.432Z,3.40
2019-03-18T02:55:36.163Z,3.50
2019-03-18T02:58:02.981Z,4.93
2019-03-18T03:00:29.660Z,3.67
2019-03-18T03:02:56.390Z,3.63
2019-03-18T03:05:23.219Z,4.20
2019-03-18T03:07:50.356Z,4.57
2019-03-18T03:10:17.066Z,3.03
2019-03-18T03:12:43.819Z,5.17
2019-03-18T03:15:10.671Z,4.93
2019-03-18T03:17:37.304Z,6.07
2019-03-18T03:20:04.387Z,4.63
2019-03-18T03:22:31.054Z,4.57
2019-03-18T03:24:57.685Z,4.50
2019-03-18T03:27:24.309Z,5.27
2019-03-18T03:29:51.272Z,5.90
2019-03-18T03:32:17.972Z,6.67
2019-03-18T03:34:44.688Z,7.50
2019-03-18T03:37:11.486Z,7.00
2019-03-18T03:39:38.237Z,7.00
2019-03-18T03:42:04.979Z,7.13
2019-03-18T03:44:31.651Z,6.33
2019-03-18T03:46:58.276Z,6.37
2019-03-18T03:49:25.012Z,6.60
2019-03-18T03:51:51.920Z,7.77
2019-03-18T03:54:18.818Z,6.33
2019-03-18T03:56:45.808Z,6.37
2019-03-18T03:59:12.610Z,6.97
2019-03-18T04:01:39.345Z,5.73
2019-03-18T04:04:05.979Z,6.13
2019-03-18T04:06:32.756Z,5.97
2019-03-18T04:08:59.493Z,6.10
2019-03-18T04:11:26.616Z,5.80
2019-03-18T04:13:53.438Z,6.37
2019-03-18T04:16:20.078Z,7.20
2019-03-18T04:18:46.709Z,5.40
2019-03-18T04:21:13.515Z,8.13
2019-03-18T04:23:40.337Z,6.87
2019-03-18T04:26:07.072Z,6.60
2019-03-18T04:28:33.872Z,6.87
2019-03-18T04:31:00.495Z,9.20
2019-03-18T04:33:27.185Z,6.67
2019-03-18T04:36:01.760Z,7.73
2019-03-18T04:38:28.483Z,5.77
2019-03-18T04:40:55.117Z,6.30
2019-03-18T04:43:22.034Z,6.60
2019-03-18T04:45:48.661Z,7.63
2019-03-18T04:48:15.390Z,6.60
2019-03-18T04:50:42.351Z,9.33
2019-03-18T04:53:08.966Z,8.53
2019-03-18T04:55:35.882Z,5.97
2019-03-18T04:58:03.071Z,8.90
2019-03-18T05:00:29.891Z,6.47
2019-03-18T05:02:56.982Z,6.87
2019-03-18T05:05:23.827Z,7.77
2019-03-18T05:07:50.880Z,7.30
2019-03-18T05:10:17.817Z,6.17
2019-03-18T05:12:44.626Z,6.30
2019-03-18T05:15:11.367Z,4.93
2019-03-18T05:17:38.198Z,7.57
2019-03-18T05:20:05.153Z,6.90
2019-03-18T05:22:31.896Z,5.03
2019-03-18T05:24:58.620Z,6.30
2019-03-18T05:27:25.674Z,4.83
2019-03-18T05:29:52.574Z,6.30
2019-03-18T05:32:19.636Z,6.53
2019-03-18T05:35:00.795Z,7.17
2019-03-18T05:37:40.556Z,6.30
2019-03-18T05:40:07.784Z,5.73
2019-03-18T05:42:34.856Z,6.20
2019-03-18T05:45:02.238Z,4.97
2019-03-18T05:47:38.477Z,5.97
2019-03-18T05:49:58.344Z,4.60
2019-03-18T05:52:25.181Z,4.97
2019-03-18T05:54:51.978Z,5.23
2019-03-18T05:57:18.781Z,5.07
2019-03-18T05:59:45.510Z,6.03
2019-03-18T06:02:12.664Z,6.03
2019-03-18T06:04:39.700Z,4.90
2019-03-18T06:07:06.564Z,5.00
2019-03-18T06:09:33.787Z,5.07
2019-03-18T06:12:00.654Z,4.73
2019-03-18T06:14:27.419Z,6.47
2019-03-18T06:16:54.268Z,6.47
2019-03-18T06:19:21.019Z,4.83
2019-03-18T06:21:48.116Z,5.80
2019-03-18T06:24:14.806Z,5.63
2019-03-18T06:26:41.533Z,6.17
2019-03-18T06:29:08.287Z,5.20
2019-03-18T06:31:35.079Z,4.70
2019-03-18T06:34:01.715Z,4.73
2019-03-18T06:36:28.480Z,5.27
2019-03-18T06:38:55.169Z,5.00
2019-03-18T06:41:21.892Z,5.73
2019-03-18T06:43:48.627Z,4.93
2019-03-18T06:46:15.308Z,4.63
2019-03-18T06:48:42.159Z,4.40
2019-03-18T06:51:09.153Z,4.27
2019-03-18T06:53:36.252Z,5.50
2019-03-18T06:56:03.361Z,5.13
2019-03-18T06:58:30.078Z,4.77
2019-03-18T07:00:56.886Z,5.20
2019-03-18T07:03:23.619Z,5.57
2019-03-18T07:05:50.259Z,5.17
2019-03-18T07:08:17.229Z,6.03
2019-03-18T07:10:43.854Z,4.23
2019-03-18T07:13:10.508Z,5.17
2019-03-18T07:15:37.474Z,4.03
2019-03-18T07:18:17.142Z,4.03
2019-03-18T07:20:32.878Z,4.43
2019-03-18T07:23:21.381Z,4.67
2019-03-18T07:25:48.366Z,4.20
2019-03-18T07:28:17.963Z,4.60
2019-03-18T07:30:43.857Z,5.27
2019-03-18T07:33:10.494Z,4.43
2019-03-18T07:35:37.374Z,3.70
2019-03-18T07:38:04.754Z,4.27
2019-03-18T07:40:31.484Z,3.90
2019-03-18T07:42:58.223Z,3.67
2019-03-18T07:45:25.081Z,3.90
2019-03-18T07:48:12.619Z,3.53
2019-03-18T07:50:41.147Z,4.47
2019-03-18T07:53:08.528Z,4.00
2019-03-18T07:55:35.617Z,3.30
2019-03-18T07:58:02.758Z,4.10
2019-03-18T08:00:29.873Z,5.10
2019-03-18T08:02:57.571Z,3.30
2019-03-18T08:05:24.744Z,3.33
2019-03-18T08:07:51.852Z,3.67
2019-03-18T08:10:19.390Z,4.03
2019-03-18T08:12:47.423Z,3.87
2019-03-18T08:15:14.963Z,3.20
2019-03-18T08:17:42.054Z,3.00
2019-03-18T08:20:09.455Z,3.63
2019-03-18T08:22:37.033Z,4.03
2019-03-18T08:25:04.305Z,3.07
2019-03-18T08:27:31.940Z,3.30
2019-03-18T08:29:59.374Z,3.67
2019-03-18T08:32:26.440Z,2.73
2019-03-18T08:34:53.867Z,3.70
2019-03-18T08:37:21.524Z,4.50
2019-03-18T08:39:48.629Z,2.73
2019-03-18T08:42:15.936Z,3.37
2019-03-18T08:44:43.016Z,3.43
2019-03-18T08:47:10.103Z,3.10
2019-03-18T08:49:37.272Z,6.77
2019-03-18T08:52:25.635Z,3.90
2019-03-18T08:54:52.797Z,2.70
2019-03-18T08:57:19.928Z,5.10
2019-03-18T08:59:47.368Z,2.63
2019-03-18T09:02:14.993Z,3.20
2019-03-18T09:04:42.112Z,5.67
2019-03-18T09:07:09.193Z,3.73
2019-03-18T09:09:36.370Z,4.27
2019-03-18T09:12:03.655Z,3.80
2019-03-18T09:14:31.559Z,3.17
2019-03-18T09:16:58.841Z,3.80
2019-03-18T09:19:25.906Z,4.57
2019-03-18T09:21:53.067Z,3.87
2019-03-18T09:24:20.588Z,3.67
2019-03-18T09:26:47.860Z,4.13
2019-03-18T09:29:14.939Z,5.23
2019-03-18T09:31:42.381Z,4.20
2019-03-18T09:34:09.470Z,4.93
2019-03-18T09:36:36.535Z,5.43
2019-03-18T09:39:05.858Z,4.40
2019-03-18T09:41:33.396Z,3.97
2019-03-18T09:44:00.558Z,4.80
2019-03-18T09:46:46.869Z,3.73
2019-03-18T09:49:21.535Z,4.87
2019-03-18T09:51:42.613Z,2.57
2019-03-18T09:54:10.173Z,5.57
2019-03-18T09:56:37.340Z,6.57
2019-03-18T09:59:05.119Z,5.17
2019-03-18T10:01:32.236Z,3.80
2019-03-18T10:03:59.385Z,4.53
2019-03-18T10:06:27.281Z,5.43
2019-03-18T10:08:54.476Z,6.43
2019-03-18T10:11:21.723Z,5.60
2019-03-18T10:13:49.018Z,5.67
2019-03-18T10:16:16.221Z,3.43
2019-03-18T10:18:43.399Z,5.00
2019-03-18T10:21:30.026Z,4.03
2019-03-18T10:23:57.140Z,3.60
2019-03-18T10:26:24.740Z,7.27
2019-03-18T10:28:51.903Z,6.33
2019-03-18T10:31:19.192Z,6.03
2019-03-18T10:33:46.314Z,4.37
2019-03-18T10:36:13.509Z,5.20
2019-03-18T10:38:41.077Z,5.10
2019-03-18T10:41:08.207Z,5.83
2019-03-18T10:43:48.145Z,4.30
2019-03-18T10:46:15.229Z,4.20
2019-03-18T10:48:42.755Z,6.00
2019-03-18T10:51:10.721Z,5.27
2019-03-18T10:53:37.851Z,6.00
2019-03-18T10:56:07.964Z,4.43
2019-03-18T10:58:34.768Z,5.10
2019-03-18T11:01:01.850Z,7.53
2019-03-18T11:03:29.752Z,4.07
2019-03-18T11:05:57.411Z,4.80
2019-03-18T11:08:24.443Z,3.30
2019-03-18T11:10:51.753Z,4.90
2019-03-18T11:13:19.020Z,6.03
2019-03-18T11:15:46.473Z,3.03
2019-03-18T11:18:13.713Z,5.07
2019-03-18T11:20:40.861Z,4.17
2019-03-18T11:23:07.982Z,5.07
2019-03-18T11:25:35.117Z,3.83
2019-03-18T11:28:02.737Z,5.37
2019-03-18T11:30:29.881Z,4.37
2019-03-18T11:32:57.192Z,5.80
2019-03-18T11:35:24.658Z,6.13
2019-03-18T11:37:51.786Z,7.13
2019-03-18T11:40:19.003Z,6.00
2019-03-18T11:42:46.342Z,5.80
2019-03-18T11:45:13.963Z,7.80
2019-03-18T11:47:41.038Z,6.63
2019-03-18T11:50:11.250Z,7.60
2019-03-18T11:52:37.931Z,6.57
2019-03-18T11:55:06.143Z,9.97
2019-03-18T11:57:33.708Z,7.33
2019-03-18T12:00:01.205Z,8.37
2019-03-18T12:02:28.721Z,9.60
2019-03-18T12:04:57.685Z,8.40
2019-03-18T12:07:25.044Z,4.87
2019-03-18T12:09:52.510Z,8.77
2019-03-18T12:12:19.767Z,4.80
2019-03-18T12:14:46.863Z,8.10
2019-03-18T12:17:14.274Z,4.20
2019-03-18T12:19:41.961Z,5.13
2019-03-18T12:22:09.156Z,6.00
2019-03-18T12:24:36.250Z,7.57
2019-03-18T12:27:22.941Z,5.87
2019-03-18T12:29:50.040Z,8.87
2019-03-18T12:32:17.261Z,7.90
2019-03-18T12:34:44.449Z,13.47
2019-03-18T12:37:11.570Z,8.50
2019-03-18T12:39:39.121Z,8.47
2019-03-18T12:42:06.384Z,5.80
2019-03-18T12:44:33.815Z,6.50
2019-03-18T12:47:01.411Z,6.27
2019-03-18T12:49:28.657Z,5.93
2019-03-18T12:51:55.863Z,5.40
2019-03-18T12:54:22.988Z,6.80
2019-03-18T12:56:50.570Z,6.37
2019-03-18T12:59:17.702Z,9.93
2019-03-18T13:01:44.822Z,9.17
2019-03-18T13:04:11.985Z,7.60
2019-03-18T13:06:39.126Z,11.27
2019-03-18T13:09:07.780Z,10.90
2019-03-18T13:11:35.342Z,10.80
2019-03-18T13:14:02.581Z,10.57
2019-03-18T13:16:29.729Z,8.03
2019-03-18T13:18:56.948Z,9.60
2019-03-18T13:21:24.083Z,7.13
2019-03-18T13:23:51.207Z,8.40
2019-03-18T13:26:18.432Z,9.03
2019-03-18T13:28:45.530Z,6.13
2019-03-18T13:31:32.213Z,7.93
2019-03-18T13:33:59.586Z,5.93
2019-03-18T13:36:27.001Z,5.87
2019-03-18T13:38:54.176Z,8.13
2019-03-18T13:41:21.745Z,8.60
2019-03-18T13:43:49.167Z,6.03
2019-03-18T13:46:18.558Z,7.90
2019-03-18T13:48:45.401Z,6.13
2019-03-18T13:51:20.823Z,5.93
2019-03-18T13:53:41.864Z,7.90
2019-03-18T13:56:09.322Z,7.80
2019-03-18T13:58:36.435Z,9.03
2019-03-18T14:01:03.601Z,7.13
2019-03-18T14:03:30.682Z,5.53
2019-03-18T14:05:57.770Z,6.93
2019-03-18T14:08:25.282Z,4.77
2019-03-18T14:10:52.393Z,6.67
2019-03-18T14:13:19.492Z,6.97
2019-03-18T14:15:46.680Z,7.07
2019-03-18T14:18:13.774Z,5.83
2019-03-18T14:20:40.883Z,6.97
2019-03-18T14:23:08.305Z,9.73
2019-03-18T14:25:35.420Z,7.87
2019-03-18T14:28:02.521Z,8.13
2019-03-18T14:30:29.704Z,9.23
2019-03-18T14:32:57.193Z,5.00
2019-03-18T14:35:24.297Z,5.80
2019-03-18T14:37:51.459Z,6.57
2019-03-18T14:40:18.563Z,5.97
2019-03-18T14:42:45.754Z,5.40
2019-03-18T14:45:14.908Z,5.33
2019-03-18T14:47:41.978Z,5.07
2019-03-18T14:50:09.286Z,5.33
2019-03-18T14:52:36.434Z,8.47
2019-03-18T14:55:04.086Z,4.90
2019-03-18T14:57:31.168Z,8.03
2019-03-18T14:59:58.604Z,3.97
2019-03-18T15:02:25.690Z,4.20
2019-03-18T15:04:52.768Z,6.47
2019-03-18T15:07:19.909Z,7.50
2019-03-18T15:09:47.406Z,6.50
2019-03-18T15:12:14.552Z,5.77
2019-03-18T15:14:41.976Z,5.83
2019-03-18T15:17:09.149Z,6.57
2019-03-18T15:19:36.724Z,9.37
2019-03-18T15:22:03.967Z,7.43
2019-03-18T15:24:31.436Z,5.10
2019-03-18T15:26:58.550Z,10.07
2019-03-18T15:29:26.429Z,9.07
2019-03-18T15:31:53.806Z,7.17
2019-03-18T15:34:21.264Z,4.53
2019-03-18T15:36:48.397Z,3.77
2019-03-18T15:39:15.868Z,11.73
2019-03-18T15:41:43.121Z,5.97
2019-03-18T15:44:10.543Z,6.30
2019-03-18T15:46:37.840Z,7.50
2019-03-18T15:49:05.089Z,5.23
2019-03-18T15:51:32.693Z,7.80
2019-03-18T15:54:00.199Z,4.50
2019-03-18T15:56:27.498Z,4.40
2019-03-18T15:58:54.718Z,5.30
2019-03-18T16:01:41.469Z,3.60
2019-03-18T16:04:28.761Z,4.40
2019-03-18T16:07:16.871Z,4.73
2019-03-18T16:10:04.463Z,4.60
2019-03-18T16:12:32.671Z,3.27
2019-03-18T16:15:00.516Z,3.67
2019-03-18T16:17:27.996Z,6.10
2019-03-18T16:19:55.110Z,8.10
2019-03-18T16:22:23.875Z,4.83
2019-03-18T16:24:52.417Z,7.27
2019-03-18T16:27:19.954Z,2.77
2019-03-18T16:29:50.864Z,4.30
2019-03-18T16:32:19.603Z,3.87
2019-03-18T16:35:06.734Z,5.07
2019-03-18T16:37:34.707Z,5.27
2019-03-18T16:40:21.633Z,5.00
2019-03-18T16:42:49.363Z,6.00
2019-03-18T16:45:17.319Z,6.43
2019-03-18T16:47:47.948Z,6.77
2019-03-18T16:50:35.286Z,5.40
2019-03-18T16:53:02.189Z,8.17
2019-03-18T16:55:29.192Z,4.63
2019-03-18T16:58:00.938Z,7.57
2019-03-18T17:00:28.552Z,6.47
2019-03-18T17:02:55.312Z,4.53
2019-03-18T17:05:23.009Z,6.03
2019-03-18T17:07:49.728Z,3.43
2019-03-18T17:10:16.531Z,7.13
2019-03-18T17:12:43.515Z,6.40
2019-03-18T17:15:54.318Z,7.13
2019-03-18T17:18:21.664Z,6.70
2019-03-18T17:20:48.768Z,6.60
2019-03-18T17:23:15.868Z,9.03
2019-03-18T17:25:43.027Z,7.37
2019-03-18T17:28:10.113Z,5.43
2019-03-18T17:30:37.199Z,5.27
2019-03-18T17:33:04.464Z,4.73
2019-03-18T17:35:31.539Z,6.00
2019-03-18T17:37:58.623Z,4.40
2019-03-18T17:40:25.831Z,3.30
2019-03-18T17:42:53.431Z,7.90
2019-03-18T17:45:21.707Z,4.03
2019-03-18T17:47:48.920Z,5.40
2019-03-18T17:50:17.130Z,5.83
2019-03-18T17:52:44.226Z,6.17
2019-03-18T17:55:11.460Z,6.47
2019-03-18T17:57:38.909Z,6.27
2019-03-18T18:00:07.573Z,4.80
2019-03-18T18:02:34.769Z,4.50
2019-03-18T18:05:03.771Z,7.53
2019-03-18T18:07:32.145Z,3.80
2019-03-18T18:09:59.379Z,7.43
2019-03-18T18:12:26.800Z,6.20
2019-03-18T18:14:53.875Z,6.63
2019-03-18T18:17:21.097Z,7.53
2019-03-18T18:19:48.699Z,8.93
2019-03-18T18:22:16.088Z,5.70
2019-03-18T18:24:43.416Z,4.27
2019-03-18T18:27:11.110Z,5.47
2019-03-18T18:29:38.769Z,5.50
2019-03-18T18:32:05.969Z,4.23
2019-03-18T18:34:33.061Z,5.10
2019-03-18T18:37:00.264Z,5.70
2019-03-18T18:39:27.958Z,6.30
2019-03-18T18:41:55.528Z,5.67
2019-03-18T18:44:23.440Z,5.37
2019-03-18T18:46:50.637Z,3.37
2019-03-18T18:49:17.862Z,4.40
2019-03-18T18:51:44.940Z,3.70
2019-03-18T18:54:12.113Z,4.83
2019-03-18T18:56:39.666Z,4.60
2019-03-18T18:59:06.758Z,8.27
2019-03-18T19:01:33.939Z,5.67
2019-03-18T19:04:01.040Z,4.47
2019-03-18T19:06:28.151Z,5.43
2019-03-18T19:08:55.652Z,5.67
2019-03-18T19:11:23.299Z,5.07
2019-03-18T19:13:50.415Z,4.70
2019-03-18T19:16:17.645Z,6.13
2019-03-18T19:18:44.757Z,4.90
2019-03-18T19:21:31.132Z,5.53
2019-03-18T19:23:57.866Z,5.67
2019-03-18T19:26:24.732Z,2.97
2019-03-18T19:28:51.645Z,7.13
2019-03-18T19:31:18.682Z,6.37
2019-03-18T19:33:45.409Z,6.87
2019-03-18T19:36:12.112Z,5.47
2019-03-18T19:38:38.846Z,6.10
2019-03-18T19:41:05.483Z,5.00
2019-03-18T19:43:32.168Z,6.23
2019-03-18T19:45:58.802Z,2.83
2019-03-18T19:48:25.429Z,4.97
2019-03-18T19:50:52.639Z,4.43
2019-03-18T19:53:19.470Z,5.83
2019-03-18T19:55:46.215Z,5.47
2019-03-18T19:58:13.296Z,5.90
2019-03-18T20:00:39.931Z,4.27
2019-03-18T20:03:06.757Z,5.13
2019-03-18T20:05:33.948Z,5.97
2019-03-18T20:08:00.779Z,11.30
2019-03-18T20:10:27.411Z,7.10
2019-03-18T20:12:54.194Z,7.50
2019-03-18T20:15:20.928Z,9.80
2019-03-18T20:17:48.058Z,5.27
2019-03-18T20:20:14.915Z,7.00
2019-03-18T20:22:41.921Z,9.60
2019-03-18T20:25:08.719Z,5.07
2019-03-18T20:27:35.774Z,6.47
2019-03-18T20:30:04.377Z,6.77
2019-03-18T20:32:32.005Z,6.87
2019-03-18T20:34:59.191Z,7.57
2019-03-18T20:37:27.116Z,6.77
2019-03-18T20:39:54.223Z,6.87
2019-03-18T20:42:21.403Z,11.73
2019-03-18T20:44:48.509Z,6.17
2019-03-18T20:47:16.017Z,6.73
2019-03-18T20:49:43.236Z,4.60
2019-03-18T20:52:16.752Z,8.60
2019-03-18T20:54:41.544Z,8.57
2019-03-18T20:57:09.532Z,8.37
2019-03-18T20:59:36.680Z,9.77
2019-03-18T21:02:03.800Z,7.93
2019-03-18T21:04:30.938Z,8.03
2019-03-18T21:06:59.787Z,7.00
2019-03-18T21:09:26.950Z,8.90
2019-03-18T21:11:53.658Z,10.13
2019-03-18T21:14:20.288Z,6.80
2019-03-18T21:17:08.491Z,7.43
2019-03-18T21:19:35.518Z,5.93
2019-03-18T21:22:02.150Z,6.27
2019-03-18T21:24:29.529Z,6.40
2019-03-18T21:26:56.203Z,10.40
2019-03-18T21:29:23.047Z,8.07
2019-03-18T21:31:50.290Z,9.93
2019-03-18T21:34:17.063Z,9.17
2019-03-18T21:36:43.943Z,7.53
2019-03-18T21:39:10.769Z,7.10
2019-03-18T21:41:37.778Z,9.53
2019-03-18T21:44:04.793Z,7.53
2019-03-18T21:46:31.497Z,6.00
2019-03-18T21:48:58.249Z,8.27
2019-03-18T21:51:24.881Z,9.50
2019-03-18T21:53:51.773Z,5.80
2019-03-18T21:56:18.502Z,11.87
2019-03-18T21:58:45.330Z,9.97
2019-03-18T22:01:12.195Z,4.63
2019-03-18T22:03:38.962Z,11.03
2019-03-18T22:06:06.197Z,8.97
2019-03-18T22:08:33.051Z,11.33
2019-03-18T22:10:59.791Z,12.53
2019-03-18T22:13:26.434Z,9.60
2019-03-18T22:15:53.592Z,12.50
2019-03-18T22:18:20.290Z,9.23
2019-03-18T22:20:47.035Z,11.83
2019-03-18T22:23:13.952Z,9.20
2019-03-18T22:25:41.069Z,6.83
2019-03-18T22:28:07.945Z,8.80
2019-03-18T22:30:34.911Z,12.23
2019-03-18T22:33:01.701Z,8.33
2019-03-18T22:35:28.336Z,9.10
2019-03-18T22:37:55.263Z,10.60
2019-03-18T22:40:22.297Z,9.00
2019-03-18T22:42:49.026Z,15.00
2019-03-18T22:45:16.052Z,15.20
2019-03-18T22:47:42.795Z,13.10
2019-03-18T22:50:50.716Z,13.53
2019-03-18T22:53:17.800Z,11.13
2019-03-18T22:55:44.858Z,9.60
2019-03-18T22:58:12.411Z,7.63
2019-03-18T23:00:59.410Z,10.87
2019-03-18T23:03:26.336Z,7.03
2019-03-18T23:05:53.070Z,9.50
2019-03-18T23:08:19.892Z,10.73
2019-03-18T23:10:46.881Z,9.00
2019-03-18T23:13:13.642Z,10.67
2019-03-18T23:15:40.375Z,13.07
2019-03-18T23:18:07.284Z,8.97
2019-03-18T23:20:34.024Z,10.60
2019-03-18T23:23:00.851Z,9.57
2019-03-18T23:25:28.129Z,12.57
2019-03-18T23:28:14.374Z,10.97
2019-03-18T23:30:41.156Z,11.43
2019-03-18T23:33:08.044Z,10.07
2019-03-18T23:35:34.861Z,8.83
2019-03-18T23:38:01.645Z,9.70
2019-03-18T23:40:28.370Z,11.80
2019-03-18T23:42:55.501Z,10.47
2019-03-18T23:45:22.444Z,9.80
2019-03-18T23:47:49.330Z,9.13
2019-03-18T23:50:16.344Z,11.87
2019-03-18T23:52:43.214Z,12.37
2019-03-18T23:55:18.939Z,11.47
2019-03-18T23:57:39.101Z,12.13
